MRDD weather

Don Diego Airport
Limón, Limon, Costa Rica

Public forecast

Using degrees Celsius for public forecast. Weather courtesy of forecast.io.

Closest aviation weather report (METAR) to Don Diego Airport

Report is more than 6 hours old.

Closest report is Cap Manuel Niño International Airport, 22.5 nm (41.6 km) ESE. Retrieved 2019/08/28 01:00 UTC (2 months ago):

MPCH 280100Z 00000KT 9999 FEW030 SCT080 Q1012 RMK HZ S-SW

Closest aviation forecast (TAF) to Don Diego Airport

Closest forecast is Limon International Airport, 25.8 nm (47.8 km) NNW. Retrieved 2019/10/14 12:03 UTC (3 minutes ago):

TAF MRLM 141100Z 1412/1512 26005KT 9999 SCT020 TX30/1419Z TN23/1511Z BECMG 1415/1418 34005KT BECMG 1500/1503 27005KT TEMPO 1502/1506 RA BKN020